createdAt,value
2022-12-11T00:00:08.282Z,37.15
2022-12-11T00:02:35.016Z,35.30
2022-12-11T00:05:01.775Z,36.53
2022-12-11T00:07:28.475Z,34.50
2022-12-11T00:09:55.176Z,31.42
2022-12-11T00:12:21.871Z,32.72
2022-12-11T00:14:48.537Z,33.47
2022-12-11T00:17:15.304Z,33.17
2022-12-11T00:19:42.003Z,36.33
2022-12-11T00:22:08.786Z,35.60
2022-12-11T00:24:35.458Z,35.65
2022-12-11T00:27:02.350Z,37.80
2022-12-11T00:29:29.031Z,38.08
2022-12-11T00:31:55.780Z,37.50
2022-12-11T00:34:22.510Z,32.65
2022-12-11T00:36:49.250Z,36.05
2022-12-11T00:39:15.907Z,36.22
2022-12-11T00:41:42.553Z,33.90
2022-12-11T00:44:09.479Z,33.47
2022-12-11T00:46:36.275Z,29.77
2022-12-11T00:49:03.091Z,31.60
2022-12-11T00:51:29.810Z,30.80
2022-12-11T00:53:56.493Z,33.17
2022-12-11T00:56:23.640Z,30.08
2022-12-11T00:58:50.389Z,34.13
2022-12-11T01:01:19.876Z,33.97
2022-12-11T01:03:46.748Z,34.22
2022-12-11T01:06:16.097Z,30.33
2022-12-11T01:08:43.645Z,32.42
2022-12-11T01:11:11.961Z,31.23
2022-12-11T01:13:39.429Z,30.08
2022-12-11T01:16:15.346Z,26.80
2022-12-11T01:18:42.478Z,30.08
2022-12-11T01:21:13.512Z,29.88
2022-12-11T01:23:40.679Z,30.25
2022-12-11T01:26:15.499Z,29.95
2022-12-11T01:28:42.822Z,30.27
2022-12-11T01:31:10.667Z,28.13
2022-12-11T01:33:37.632Z,27.98
2022-12-11T01:36:16.733Z,28.80
2022-12-11T01:38:43.561Z,27.67
2022-12-11T01:41:10.621Z,27.63
2022-12-11T01:43:56.823Z,29.30
2022-12-11T01:46:23.926Z,28.80
2022-12-11T01:48:50.668Z,29.00
2022-12-11T01:51:17.335Z,29.00
2022-12-11T01:53:49.384Z,25.90
2022-12-11T01:56:16.011Z,32.22
2022-12-11T01:58:48.009Z,27.73
2022-12-11T02:01:28.338Z,27.88
2022-12-11T02:03:55.183Z,27.52
2022-12-11T02:06:39.996Z,23.30
2022-12-11T02:09:08.482Z,27.42
2022-12-11T02:11:56.903Z,25.92
2022-12-11T02:14:58.967Z,25.08
2022-12-11T02:17:36.083Z,26.05
2022-12-11T02:20:08.571Z,22.75
2022-12-11T02:22:59.707Z,24.38
2022-12-11T02:25:49.599Z,22.02
2022-12-11T02:28:38.358Z,21.90
2022-12-11T02:31:32.410Z,22.10
2022-12-11T02:34:05.327Z,25.27
2022-12-11T02:36:36.236Z,25.20
2022-12-11T02:39:03.778Z,27.65
2022-12-11T02:41:30.549Z,26.20
2022-12-11T02:43:57.612Z,26.42
2022-12-11T02:46:24.336Z,23.40
2022-12-11T02:48:51.345Z,25.10
2022-12-11T02:51:21.484Z,22.02
2022-12-11T02:53:48.157Z,20.15
2022-12-11T02:56:24.764Z,23.17
2022-12-11T02:58:58.816Z,25.73
2022-12-11T03:01:26.557Z,23.23
2022-12-11T03:03:54.541Z,25.85
2022-12-11T03:06:23.889Z,22.35
2022-12-11T03:08:52.097Z,23.73
2022-12-11T03:11:18.754Z,20.95
2022-12-11T03:13:45.674Z,21.15
2022-12-11T03:16:17.547Z,20.35
2022-12-11T03:19:16.519Z,18.95
2022-12-11T03:21:51.213Z,24.40
2022-12-11T03:24:29.781Z,23.00
2022-12-11T03:27:02.203Z,23.02
2022-12-11T03:29:37.815Z,23.63
2022-12-11T03:32:04.440Z,21.73
2022-12-11T03:34:45.011Z,23.00
2022-12-11T03:37:12.385Z,19.33
2022-12-11T03:39:49.447Z,23.08
2022-12-11T03:42:16.181Z,21.50
2022-12-11T03:45:32.322Z,24.05
2022-12-11T03:47:59.470Z,26.38
2022-12-11T03:50:26.643Z,26.08
2022-12-11T03:52:53.329Z,23.77
2022-12-11T03:55:20.043Z,25.85
2022-12-11T03:57:46.770Z,25.17
2022-12-11T04:00:16.626Z,24.25
2022-12-11T04:02:43.514Z,26.98
2022-12-11T04:05:10.885Z,26.38
2022-12-11T04:07:38.053Z,25.63
2022-12-11T04:10:05.298Z,24.77
2022-12-11T04:12:32.130Z,25.40
2022-12-11T04:15:04.629Z,25.95
2022-12-11T04:17:52.466Z,23.42
2022-12-11T04:20:38.451Z,25.08
2022-12-11T04:23:32.412Z,27.15
2022-12-11T04:26:17.354Z,28.20
2022-12-11T04:28:44.597Z,27.63
2022-12-11T04:31:15.950Z,26.42
2022-12-11T04:33:42.857Z,26.33
2022-12-11T04:36:10.391Z,27.67
2022-12-11T04:38:37.175Z,26.25
2022-12-11T04:41:08.848Z,27.42
2022-12-11T04:43:35.689Z,25.35
2022-12-11T04:46:10.966Z,25.38
2022-12-11T04:48:38.221Z,25.83
2022-12-11T04:51:05.169Z,27.63
2022-12-11T04:53:32.207Z,26.27
2022-12-11T04:55:58.901Z,28.67
2022-12-11T04:58:26.472Z,27.30
2022-12-11T05:00:53.511Z,29.33
2022-12-11T05:03:20.663Z,28.13
2022-12-11T05:05:51.501Z,26.65
2022-12-11T05:08:19.015Z,27.88
2022-12-11T05:10:50.092Z,29.23
2022-12-11T05:13:16.948Z,28.35
2022-12-11T05:15:43.846Z,28.23
2022-12-11T05:18:10.639Z,26.48
2022-12-11T05:20:37.269Z,28.95
2022-12-11T05:23:04.067Z,32.10
2022-12-11T05:25:30.711Z,30.85
2022-12-11T05:27:59.735Z,28.98
2022-12-11T05:30:26.586Z,29.23
2022-12-11T05:32:53.456Z,31.88
2022-12-11T05:35:20.308Z,31.65
2022-12-11T05:37:47.114Z,34.58
2022-12-11T05:40:13.894Z,31.77
2022-12-11T05:42:40.750Z,36.50
2022-12-11T05:45:07.698Z,35.08
2022-12-11T05:47:34.489Z,36.08
2022-12-11T05:50:01.665Z,35.20
2022-12-11T05:52:28.386Z,38.78
2022-12-11T05:54:55.123Z,36.85
2022-12-11T05:57:21.833Z,40.25
2022-12-11T05:59:48.528Z,43.88
2022-12-11T06:02:15.391Z,42.17
2022-12-11T06:04:42.306Z,44.95
2022-12-11T06:07:08.965Z,41.05
2022-12-11T06:09:35.713Z,39.08
2022-12-11T06:12:02.423Z,46.58
2022-12-11T06:14:29.081Z,46.00
2022-12-11T06:16:55.834Z,48.08
2022-12-11T06:19:22.618Z,48.60
2022-12-11T06:21:49.441Z,48.38
2022-12-11T06:24:16.187Z,52.38
2022-12-11T06:26:42.992Z,47.13
2022-12-11T06:29:12.918Z,49.25
2022-12-11T06:31:40.495Z,48.83
2022-12-11T06:34:07.681Z,48.03
2022-12-11T06:36:34.748Z,48.45
2022-12-11T06:39:01.500Z,50.50
2022-12-11T06:41:28.257Z,53.42
2022-12-11T06:43:54.894Z,51.17
2022-12-11T06:46:21.696Z,54.58
2022-12-11T06:48:48.850Z,54.78
2022-12-11T06:51:20.640Z,63.00
2022-12-11T06:53:52.388Z,60.67
2022-12-11T06:56:19.229Z,55.58
2022-12-11T06:58:46.028Z,50.13
2022-12-11T07:01:14.769Z,52.80
2022-12-11T07:03:41.632Z,56.58
2022-12-11T07:06:08.544Z,54.08
2022-12-11T07:08:37.199Z,49.95
2022-12-11T07:11:09.423Z,54.83
2022-12-11T07:13:36.592Z,46.70
2022-12-11T07:16:04.796Z,45.75
2022-12-11T07:18:32.711Z,50.95
2022-12-11T07:21:02.723Z,45.65
2022-12-11T07:23:29.524Z,52.10
2022-12-11T07:25:56.547Z,54.25
2022-12-11T07:28:24.019Z,46.42
2022-12-11T07:30:50.680Z,47.55
2022-12-11T07:33:17.449Z,47.42
2022-12-11T07:35:44.485Z,43.95
2022-12-11T07:38:11.228Z,46.25
2022-12-11T07:40:37.960Z,44.70
2022-12-11T07:43:04.667Z,44.00
2022-12-11T07:45:32.060Z,44.67
2022-12-11T07:47:59.197Z,38.97
2022-12-11T07:50:26.105Z,38.92
2022-12-11T07:52:52.844Z,39.53
2022-12-11T07:55:19.640Z,38.28
2022-12-11T07:57:46.484Z,41.67
2022-12-11T08:00:13.658Z,41.33
2022-12-11T08:02:40.407Z,41.78
2022-12-11T08:05:07.867Z,38.65
2022-12-11T08:07:35.719Z,38.00
2022-12-11T08:10:03.761Z,34.42
2022-12-11T08:12:30.858Z,37.28
2022-12-11T08:14:57.621Z,30.73
2022-12-11T08:17:29.090Z,35.10
2022-12-11T08:19:57.621Z,30.98
2022-12-11T08:22:24.365Z,32.08
2022-12-11T08:24:51.250Z,32.72
2022-12-11T08:27:18.030Z,32.03
2022-12-11T08:29:45.876Z,31.60
2022-12-11T08:32:13.785Z,35.47
2022-12-11T08:34:40.639Z,31.08
2022-12-11T08:37:07.279Z,31.38
2022-12-11T08:39:33.960Z,27.48
2022-12-11T08:42:00.676Z,29.02
2022-12-11T08:44:28.463Z,33.35
2022-12-11T08:46:55.179Z,37.50
2022-12-11T08:49:21.939Z,45.22
2022-12-11T08:51:48.600Z,34.83
2022-12-11T08:54:15.284Z,31.92
2022-12-11T08:56:41.944Z,29.50
2022-12-11T08:59:08.886Z,28.73
2022-12-11T09:01:35.642Z,33.13
2022-12-11T09:04:02.493Z,31.05
2022-12-11T09:06:30.286Z,25.05
2022-12-11T09:08:59.556Z,28.42
2022-12-11T09:11:34.990Z,29.55
2022-12-11T09:14:07.229Z,29.77
2022-12-11T09:16:37.843Z,29.42
2022-12-11T09:19:04.616Z,26.88
2022-12-11T09:21:31.399Z,27.10
2022-12-11T09:24:00.047Z,30.23
2022-12-11T09:26:27.724Z,27.45
2022-12-11T09:28:55.018Z,27.15
2022-12-11T09:31:32.632Z,28.48
2022-12-11T09:34:06.238Z,34.08
2022-12-11T09:36:33.380Z,28.50
2022-12-11T09:39:01.973Z,40.67
2022-12-11T09:41:41.702Z,30.73
2022-12-11T09:44:11.317Z,29.08
2022-12-11T09:46:38.122Z,31.50
2022-12-11T09:49:05.416Z,28.98
2022-12-11T09:51:38.517Z,30.70
2022-12-11T09:56:57.427Z,30.50
2022-12-11T09:59:50.410Z,24.85
2022-12-11T10:02:17.217Z,25.90
2022-12-11T10:04:59.287Z,29.25
2022-12-11T10:07:30.658Z,29.75
2022-12-11T10:10:19.226Z,30.08
2022-12-11T10:13:20.875Z,29.33
2022-12-11T10:15:58.328Z,37.50
2022-12-11T10:18:25.564Z,32.70
2022-12-11T10:20:52.899Z,27.75
2022-12-11T10:23:28.502Z,23.17
2022-12-11T10:25:59.276Z,25.73
2022-12-11T10:28:27.542Z,24.23
2022-12-11T10:31:16.084Z,24.05
2022-12-11T10:34:02.090Z,20.48
2022-12-11T10:36:40.013Z,23.33
2022-12-11T10:39:18.585Z,24.25
2022-12-11T10:41:47.114Z,24.08
2022-12-11T10:44:17.622Z,27.35
2022-12-11T10:46:45.251Z,31.40
2022-12-11T10:49:26.413Z,26.23
2022-12-11T10:51:54.507Z,25.00
2022-12-11T10:54:24.888Z,25.95
2022-12-11T10:56:51.781Z,26.23
2022-12-11T10:59:48.690Z,22.70
2022-12-11T11:02:27.321Z,23.08
2022-12-11T11:04:55.081Z,23.85
2022-12-11T11:07:24.663Z,25.98
2022-12-11T11:09:54.403Z,22.67
2022-12-11T11:12:24.402Z,23.15
2022-12-11T11:15:01.969Z,21.63
2022-12-11T11:17:34.469Z,18.45
2022-12-11T11:22:31.443Z,20.92
2022-12-11T11:24:59.045Z,20.45
2022-12-11T11:27:28.655Z,20.55
2022-12-11T11:29:57.105Z,23.25
2022-12-11T11:32:34.831Z,21.02
2022-12-11T11:35:11.678Z,22.23
2022-12-11T11:37:43.226Z,27.50
2022-12-11T11:40:33.859Z,22.90
2022-12-11T11:43:15.637Z,24.90
2022-12-11T11:46:22.599Z,23.52
2022-12-11T11:49:53.847Z,20.40
2022-12-11T11:52:35.219Z,20.40
2022-12-11T11:55:03.991Z,22.58
2022-12-11T11:58:05.475Z,21.35
2022-12-11T12:00:34.140Z,22.30
2022-12-11T12:03:02.414Z,19.95
2022-12-11T12:05:39.519Z,20.38
2022-12-11T12:08:09.163Z,21.42
2022-12-11T12:11:01.717Z,21.98
2022-12-11T12:13:50.769Z,22.13
2022-12-11T12:19:53.254Z,23.38
2022-12-11T12:22:22.976Z,19.63
2022-12-11T12:25:10.903Z,21.42
2022-12-11T12:27:52.857Z,21.83
2022-12-11T12:30:23.002Z,20.95
2022-12-11T12:32:56.231Z,21.75
2022-12-11T12:35:22.918Z,22.73
2022-12-11T12:38:01.745Z,23.08
2022-12-11T12:40:47.080Z,21.20
2022-12-11T12:43:47.410Z,23.45
2022-12-11T12:46:38.442Z,23.25
2022-12-11T12:49:05.136Z,23.45
2022-12-11T12:51:31.777Z,24.15
2022-12-11T12:54:00.950Z,24.95
2022-12-11T12:56:28.188Z,23.02
2022-12-11T12:58:55.002Z,26.95
2022-12-11T13:01:26.269Z,24.65
2022-12-11T13:04:05.696Z,21.40
2022-12-11T13:06:41.157Z,23.52
2022-12-11T13:09:23.816Z,25.20
2022-12-11T13:11:55.003Z,27.17
2022-12-11T13:14:29.717Z,24.85
2022-12-11T13:17:21.429Z,28.95
2022-12-11T13:19:49.481Z,30.00
2022-12-11T13:22:16.087Z,26.05
2022-12-11T13:24:47.371Z,26.92
2022-12-11T13:27:32.391Z,29.80
2022-12-11T13:30:26.268Z,32.85
2022-12-11T13:33:07.279Z,30.33
2022-12-11T13:35:34.610Z,33.70
2022-12-11T13:38:07.198Z,35.30
2022-12-11T13:40:38.604Z,34.40
2022-12-11T13:43:19.652Z,34.80
2022-12-11T13:45:49.478Z,35.15
2022-12-11T13:48:27.117Z,32.33
2022-12-11T13:50:54.731Z,36.28
2022-12-11T13:53:22.191Z,30.48
2022-12-11T13:56:06.764Z,32.28
2022-12-11T13:58:39.898Z,33.05
2022-12-11T14:03:35.112Z,31.90
2022-12-11T14:06:01.926Z,34.72
2022-12-11T14:08:33.320Z,29.38
2022-12-11T14:11:00.024Z,28.23
2022-12-11T14:13:29.691Z,34.58
2022-12-11T14:15:56.446Z,33.45
2022-12-11T14:18:24.432Z,37.85
2022-12-11T14:20:59.149Z,33.38
2022-12-11T14:23:27.914Z,32.53
2022-12-11T14:26:03.025Z,33.42
2022-12-11T14:28:36.158Z,32.85
2022-12-11T14:33:41.143Z,33.67
2022-12-11T14:36:08.259Z,34.30
2022-12-11T14:38:50.112Z,35.88
2022-12-11T14:41:21.945Z,37.17
2022-12-11T14:43:50.607Z,38.53
2022-12-11T14:46:22.652Z,37.60
2022-12-11T14:49:06.189Z,34.97
2022-12-11T14:51:36.177Z,38.50
2022-12-11T14:54:02.953Z,35.30
2022-12-11T14:56:30.063Z,33.97
2022-12-11T14:59:06.599Z,34.45
2022-12-11T15:01:37.318Z,38.05
2022-12-11T15:04:08.167Z,35.30
2022-12-11T15:06:36.342Z,39.03
2022-12-11T15:09:30.220Z,45.60
2022-12-11T15:11:58.725Z,46.58
2022-12-11T15:14:25.697Z,40.75
2022-12-11T15:16:53.593Z,42.53
2022-12-11T15:19:32.123Z,48.05
2022-12-11T15:22:04.139Z,44.25
2022-12-11T15:24:38.415Z,41.05
2022-12-11T15:27:05.229Z,44.45
2022-12-11T15:29:37.828Z,42.10
2022-12-11T15:32:14.199Z,42.78
2022-12-11T15:34:52.552Z,42.95
2022-12-11T15:37:23.722Z,42.15
2022-12-11T15:39:50.968Z,42.53
2022-12-11T15:42:34.922Z,44.60
2022-12-11T15:45:02.043Z,45.60
2022-12-11T15:47:30.948Z,47.92
2022-12-11T15:50:00.095Z,45.15
2022-12-11T15:52:26.867Z,42.13
2022-12-11T15:54:53.674Z,39.70
2022-12-11T15:57:22.018Z,42.80
2022-12-11T15:59:49.015Z,39.22
2022-12-11T16:02:15.874Z,38.00
2022-12-11T16:04:42.713Z,41.92
2022-12-11T16:07:18.156Z,46.45
2022-12-11T16:09:45.735Z,46.15
2022-12-11T16:12:14.116Z,38.03
2022-12-11T16:14:45.113Z,36.92
2022-12-11T16:17:13.270Z,42.53
2022-12-11T16:19:40.626Z,44.92
2022-12-11T16:22:09.009Z,39.80
2022-12-11T16:24:36.314Z,40.00
2022-12-11T16:27:03.683Z,43.20
2022-12-11T16:29:34.259Z,43.15
2022-12-11T16:32:01.033Z,42.22
2022-12-11T16:34:28.195Z,43.92
2022-12-11T16:36:57.990Z,46.47
2022-12-11T16:39:24.795Z,40.92
2022-12-11T16:41:51.450Z,40.60
2022-12-11T16:44:23.497Z,39.30
2022-12-11T16:46:50.594Z,42.03
2022-12-11T16:49:17.876Z,40.83
2022-12-11T16:51:44.868Z,39.92
2022-12-11T16:54:11.925Z,40.97
2022-12-11T16:56:39.126Z,41.97
2022-12-11T16:59:06.054Z,41.45
2022-12-11T17:01:33.181Z,42.53
2022-12-11T17:04:00.440Z,44.03
2022-12-11T17:06:27.617Z,42.30
2022-12-11T17:08:54.307Z,40.28
2022-12-11T17:11:22.473Z,46.45
2022-12-11T17:13:54.120Z,41.00
2022-12-11T17:16:22.283Z,36.33
2022-12-11T17:18:49.066Z,42.45
2022-12-11T17:21:17.823Z,41.80
2022-12-11T17:23:45.137Z,36.38
2022-12-11T17:26:11.948Z,43.47
2022-12-11T17:28:39.251Z,45.72
2022-12-11T17:31:11.512Z,44.38
2022-12-11T17:33:38.262Z,45.28
2022-12-11T17:36:06.437Z,42.67
2022-12-11T17:38:33.624Z,45.30
2022-12-11T17:41:00.378Z,47.70
2022-12-11T17:43:27.330Z,42.70
2022-12-11T17:45:55.256Z,46.40
2022-12-11T17:48:22.805Z,41.65
2022-12-11T17:50:51.846Z,44.38
2022-12-11T17:53:20.339Z,43.63
2022-12-11T17:55:47.761Z,40.60
2022-12-11T17:58:23.624Z,38.33
2022-12-11T18:00:53.483Z,39.22
2022-12-11T18:03:20.643Z,40.63
2022-12-11T18:05:49.458Z,41.88
2022-12-11T18:08:18.451Z,38.25
2022-12-11T18:10:45.806Z,39.97
2022-12-11T18:13:12.835Z,42.25
2022-12-11T18:15:40.069Z,45.75
2022-12-11T18:18:07.266Z,44.78
2022-12-11T18:20:34.489Z,47.28
2022-12-11T18:23:01.648Z,52.67
2022-12-11T18:25:28.447Z,49.40
2022-12-11T18:27:55.469Z,48.22
2022-12-11T18:30:23.245Z,55.92
2022-12-11T18:32:50.799Z,55.28
2022-12-11T18:35:17.598Z,50.92
2022-12-11T18:37:44.312Z,61.58
2022-12-11T18:40:14.259Z,65.13
2022-12-11T18:42:41.235Z,73.03
2022-12-11T18:45:08.581Z,66.47
2022-12-11T18:47:35.236Z,69.88
2022-12-11T18:50:07.357Z,72.35
2022-12-11T18:52:34.416Z,70.77
2022-12-11T18:55:01.229Z,64.35
2022-12-11T18:57:27.892Z,60.28
2022-12-11T18:59:54.731Z,61.95
2022-12-11T19:02:21.756Z,60.58
2022-12-11T19:04:48.562Z,64.15
2022-12-11T19:07:15.254Z,64.20
2022-12-11T19:09:47.587Z,64.10
2022-12-11T19:12:14.863Z,65.90
2022-12-11T19:14:41.718Z,62.33
2022-12-11T19:17:08.664Z,61.47
2022-12-11T19:19:36.074Z,66.35
2022-12-11T19:22:03.177Z,67.63
2022-12-11T19:24:30.046Z,60.60
2022-12-11T19:26:57.084Z,56.90
2022-12-11T19:29:26.803Z,57.17
2022-12-11T19:31:55.681Z,57.50
2022-12-11T19:34:22.937Z,57.22
2022-12-11T19:36:49.932Z,57.95
2022-12-11T19:39:16.847Z,56.97
2022-12-11T19:41:43.869Z,54.42
2022-12-11T19:44:11.996Z,52.47
2022-12-11T19:46:39.119Z,55.13
2022-12-11T19:49:06.025Z,54.25
2022-12-11T19:51:41.155Z,51.05
2022-12-11T19:54:09.383Z,60.67
2022-12-11T19:56:36.297Z,54.55
2022-12-11T19:59:04.299Z,49.78
2022-12-11T20:01:32.433Z,56.42
2022-12-11T20:04:01.291Z,54.58
2022-12-11T20:06:30.468Z,52.58
2022-12-11T20:08:57.575Z,51.95
2022-12-11T20:11:24.538Z,55.83
2022-12-11T20:13:51.922Z,50.08
2022-12-11T20:16:28.899Z,51.20
2022-12-11T20:19:06.320Z,52.05
2022-12-11T20:21:33.108Z,49.85
2022-12-11T20:23:59.824Z,51.00
2022-12-11T20:26:27.066Z,50.80
2022-12-11T20:28:53.777Z,51.88
2022-12-11T20:31:24.567Z,47.45
2022-12-11T20:33:52.465Z,47.17
2022-12-11T20:36:20.877Z,44.72
2022-12-11T20:38:48.091Z,43.75
2022-12-11T20:41:17.331Z,45.90
2022-12-11T20:43:44.300Z,44.08
2022-12-11T20:46:12.904Z,44.35
2022-12-11T20:48:40.983Z,43.35
2022-12-11T20:51:08.605Z,44.42
2022-12-11T20:53:36.218Z,43.65
2022-12-11T20:56:08.929Z,42.65
2022-12-11T20:58:36.221Z,44.88
2022-12-11T21:01:02.941Z,46.60
2022-12-11T21:03:33.753Z,43.22
2022-12-11T21:06:03.311Z,47.38
2022-12-11T21:08:32.070Z,43.38
2022-12-11T21:10:59.153Z,44.13
2022-12-11T21:13:26.000Z,43.83
2022-12-11T21:15:56.497Z,43.78
2022-12-11T21:18:23.442Z,45.13
2022-12-11T21:20:51.152Z,46.25
2022-12-11T21:23:18.032Z,45.78
2022-12-11T21:25:44.763Z,44.97
2022-12-11T21:28:11.622Z,47.67
2022-12-11T21:30:41.299Z,42.05
2022-12-11T21:33:08.276Z,35.72
2022-12-11T21:35:37.991Z,46.80
2022-12-11T21:38:04.747Z,44.03
2022-12-11T21:40:31.547Z,41.00
2022-12-11T21:42:58.191Z,41.55
2022-12-11T21:45:59.934Z,41.95
2022-12-11T21:48:11.991Z,40.05
2022-12-11T21:50:39.382Z,39.38
2022-12-11T21:53:06.152Z,37.75
2022-12-11T21:55:33.035Z,40.40
2022-12-11T21:57:59.794Z,37.65
2022-12-11T22:00:28.410Z,33.15
2022-12-11T22:02:55.138Z,35.85
2022-12-11T22:05:22.627Z,42.83
2022-12-11T22:07:49.438Z,42.28
2022-12-11T22:10:16.277Z,42.08
2022-12-11T22:12:42.996Z,42.33
2022-12-11T22:15:10.219Z,41.92
2022-12-11T22:17:37.769Z,39.70
2022-12-11T22:20:06.362Z,43.45
2022-12-11T22:22:33.280Z,39.67
2022-12-11T22:25:00.325Z,39.05
2022-12-11T22:27:27.284Z,37.97
2022-12-11T22:29:54.765Z,39.33
2022-12-11T22:32:21.502Z,34.60
2022-12-11T22:34:48.207Z,37.70
2022-12-11T22:37:14.897Z,35.88
2022-12-11T22:39:41.632Z,34.88
2022-12-11T22:42:08.304Z,36.83
2022-12-11T22:44:34.993Z,37.50
2022-12-11T22:47:01.713Z,36.53
2022-12-11T22:49:28.393Z,38.30
2022-12-11T22:51:55.100Z,37.53
2022-12-11T22:54:21.736Z,36.33
2022-12-11T22:56:48.460Z,38.80
2022-12-11T22:59:15.207Z,36.53
2022-12-11T23:01:42.011Z,41.42
2022-12-11T23:04:08.646Z,38.33
2022-12-11T23:06:35.595Z,38.45
2022-12-11T23:09:02.665Z,37.95
2022-12-11T23:11:34.923Z,38.40
2022-12-11T23:14:02.139Z,40.30
2022-12-11T23:16:29.031Z,38.60
2022-12-11T23:18:56.750Z,39.42
2022-12-11T23:21:24.077Z,37.55
2022-12-11T23:23:50.959Z,42.00
2022-12-11T23:26:18.891Z,42.85
2022-12-11T23:28:46.091Z,38.97
2022-12-11T23:31:13.212Z,37.47
2022-12-11T23:33:39.876Z,41.10
2022-12-11T23:36:07.180Z,39.33
2022-12-11T23:38:33.956Z,42.00
2022-12-11T23:41:01.682Z,41.55
2022-12-11T23:43:28.366Z,40.78
2022-12-11T23:45:55.363Z,40.88
2022-12-11T23:48:22.107Z,42.72
2022-12-11T23:50:48.858Z,42.38
2022-12-11T23:53:15.572Z,39.38
2022-12-11T23:55:44.212Z,45.33
2022-12-11T23:58:11.034Z,39.05
